createdAt,value
2018-11-05T00:00:57.365Z,22.80
2018-11-05T00:03:25.624Z,22.93
2018-11-05T00:05:53.874Z,23.83
2018-11-05T00:08:22.756Z,23.43
2018-11-05T00:10:51.048Z,22.30
2018-11-05T00:13:19.327Z,22.77
2018-11-05T00:15:47.655Z,21.77
2018-11-05T00:18:15.902Z,21.77
2018-11-05T00:20:44.166Z,22.43
2018-11-05T00:23:12.414Z,22.57
2018-11-05T00:25:40.676Z,22.10
2018-11-05T00:28:09.045Z,21.43
2018-11-05T00:30:37.309Z,21.10
2018-11-05T00:33:05.600Z,22.37
2018-11-05T00:35:33.880Z,21.37
2018-11-05T00:38:02.180Z,21.27
2018-11-05T00:40:30.482Z,20.23
2018-11-05T00:42:58.747Z,21.50
2018-11-05T00:45:27.052Z,21.47
2018-11-05T00:47:55.287Z,21.50
2018-11-05T00:50:23.573Z,21.20
2018-11-05T00:52:51.800Z,20.77
2018-11-05T00:55:20.052Z,21.00
2018-11-05T00:57:48.287Z,19.97
2018-11-05T01:00:17.202Z,19.43
2018-11-05T01:02:45.489Z,21.00
2018-11-05T01:05:14.880Z,19.53
2018-11-05T01:07:43.884Z,20.97
2018-11-05T01:10:13.282Z,20.50
2018-11-05T01:12:41.653Z,18.80
2018-11-05T01:15:14.237Z,20.00
2018-11-05T01:17:42.459Z,18.10
2018-11-05T01:20:11.739Z,18.60
2018-11-05T01:22:39.971Z,18.83
2018-11-05T01:25:08.277Z,19.90
2018-11-05T01:27:36.557Z,19.83
2018-11-05T01:30:06.968Z,18.10
2018-11-05T01:32:35.193Z,18.73
2018-11-05T01:35:03.428Z,19.77
2018-11-05T01:37:31.680Z,18.33
2018-11-05T01:39:59.904Z,20.33
2018-11-05T01:42:28.151Z,20.20
2018-11-05T01:44:56.375Z,18.57
2018-11-05T01:47:24.604Z,18.60
2018-11-05T01:49:52.828Z,19.70
2018-11-05T01:52:21.103Z,18.47
2018-11-05T01:54:49.407Z,20.53
2018-11-05T01:57:17.674Z,17.50
2018-11-05T01:59:45.923Z,19.17
2018-11-05T02:02:14.202Z,18.70
2018-11-05T02:04:42.429Z,19.77
2018-11-05T02:07:10.688Z,19.40
2018-11-05T02:09:38.936Z,19.33
2018-11-05T02:12:07.340Z,19.90
2018-11-05T02:14:35.836Z,18.40
2018-11-05T02:17:04.283Z,19.20
2018-11-05T02:19:32.648Z,18.40
2018-11-05T02:22:00.884Z,18.87
2018-11-05T02:24:29.195Z,18.03
2018-11-05T02:26:57.460Z,18.97
2018-11-05T02:29:25.679Z,18.27
2018-11-05T02:31:53.937Z,18.70
2018-11-05T02:34:22.198Z,18.33
2018-11-05T02:36:50.485Z,18.87
2018-11-05T02:39:18.716Z,17.10
2018-11-05T02:41:47.019Z,15.90
2018-11-05T02:44:15.260Z,17.47
2018-11-05T02:46:43.482Z,17.30
2018-11-05T02:49:11.936Z,17.57
2018-11-05T02:51:40.196Z,18.00
2018-11-05T02:54:08.423Z,17.67
2018-11-05T02:56:36.682Z,18.03
2018-11-05T02:59:05.089Z,18.10
2018-11-05T03:01:33.315Z,18.33
2018-11-05T03:04:01.567Z,17.50
2018-11-05T03:06:29.868Z,18.10
2018-11-05T03:08:58.128Z,18.57
2018-11-05T03:11:26.356Z,18.40
2018-11-05T03:13:54.615Z,18.07
2018-11-05T03:16:22.902Z,16.30
2018-11-05T03:18:51.171Z,16.83
2018-11-05T03:21:19.407Z,18.40
2018-11-05T03:23:47.728Z,16.07
2018-11-05T03:26:15.951Z,17.27
2018-11-05T03:28:44.169Z,17.10
2018-11-05T03:31:12.421Z,17.77
2018-11-05T03:33:40.651Z,16.90
2018-11-05T03:36:08.900Z,17.13
2018-11-05T03:38:37.224Z,17.10
2018-11-05T03:41:06.071Z,17.37
2018-11-05T03:43:34.336Z,16.20
2018-11-05T03:46:02.559Z,16.43
2018-11-05T03:48:30.834Z,16.07
2018-11-05T03:50:59.074Z,18.83
2018-11-05T03:53:27.346Z,16.23
2018-11-05T03:55:55.706Z,15.70
2018-11-05T03:58:23.878Z,17.60
2018-11-05T04:00:52.124Z,17.17
2018-11-05T04:03:21.155Z,15.80
2018-11-05T04:05:49.361Z,15.70
2018-11-05T04:08:17.579Z,14.60
2018-11-05T04:10:45.840Z,17.40
2018-11-05T04:13:14.075Z,16.17
2018-11-05T04:15:42.471Z,16.53
2018-11-05T04:18:10.584Z,15.40
2018-11-05T04:20:38.840Z,16.60
2018-11-05T04:23:07.106Z,17.37
2018-11-05T04:25:35.322Z,16.47
2018-11-05T04:28:03.557Z,17.43
2018-11-05T04:30:31.772Z,16.67
2018-11-05T04:33:00.044Z,16.70
2018-11-05T04:35:28.286Z,14.80
2018-11-05T04:37:56.508Z,15.27
2018-11-05T04:40:24.778Z,16.07
2018-11-05T04:42:53.008Z,14.70
2018-11-05T04:45:21.265Z,15.73
2018-11-05T04:47:49.527Z,14.73
2018-11-05T04:50:17.777Z,15.27
2018-11-05T04:52:46.024Z,14.13
2018-11-05T04:55:14.287Z,15.70
2018-11-05T04:57:42.527Z,15.47
2018-11-05T05:00:14.034Z,14.43
2018-11-05T05:02:42.701Z,15.50
2018-11-05T05:05:12.183Z,15.67
2018-11-05T05:07:40.507Z,15.30
2018-11-05T05:10:09.475Z,15.10
2018-11-05T05:12:38.454Z,15.53
2018-11-05T05:15:06.993Z,16.50
2018-11-05T05:17:35.215Z,14.43
2018-11-05T05:20:03.600Z,14.47
2018-11-05T05:22:31.909Z,14.37
2018-11-05T05:25:00.095Z,15.80
2018-11-05T05:27:28.323Z,14.93
2018-11-05T05:29:56.563Z,14.67
2018-11-05T05:32:24.801Z,15.63
2018-11-05T05:34:53.051Z,14.87
2018-11-05T05:37:21.350Z,15.03
2018-11-05T05:39:49.623Z,14.60
2018-11-05T05:42:17.855Z,13.47
2018-11-05T05:44:46.226Z,14.80
2018-11-05T05:47:14.509Z,14.10
2018-11-05T05:49:42.766Z,15.43
2018-11-05T05:52:11.073Z,13.67
2018-11-05T05:54:39.324Z,17.17
2018-11-05T05:57:07.585Z,15.47
2018-11-05T05:59:35.857Z,15.03
2018-11-05T06:02:04.288Z,15.03
2018-11-05T06:04:32.523Z,15.27
2018-11-05T06:07:00.779Z,14.70
2018-11-05T06:09:29.171Z,14.50
2018-11-05T06:11:57.429Z,16.87
2018-11-05T06:14:25.672Z,15.03
2018-11-05T06:16:54.052Z,14.77
2018-11-05T06:19:22.684Z,13.63
2018-11-05T06:21:51.009Z,14.87
2018-11-05T06:24:19.200Z,15.20
2018-11-05T06:26:47.542Z,14.87
2018-11-05T06:29:15.808Z,14.87
2018-11-05T06:31:44.056Z,14.90
2018-11-05T06:34:12.292Z,16.20
2018-11-05T06:36:40.527Z,13.80
2018-11-05T06:39:11.301Z,15.10
2018-11-05T06:41:39.835Z,15.97
2018-11-05T06:44:08.043Z,15.27
2018-11-05T06:46:36.253Z,15.57
2018-11-05T06:49:05.060Z,14.13
2018-11-05T06:51:33.229Z,13.93
2018-11-05T06:54:01.774Z,13.50
2018-11-05T06:56:30.006Z,13.70
2018-11-05T06:58:58.283Z,14.37
2018-11-05T07:01:26.548Z,14.20
2018-11-05T07:03:54.823Z,13.77
2018-11-05T07:06:23.105Z,13.47
2018-11-05T07:08:51.638Z,13.97
2018-11-05T07:11:19.984Z,15.30
2018-11-05T07:13:48.452Z,12.97
2018-11-05T07:16:16.980Z,14.53
2018-11-05T07:18:45.338Z,15.00
2018-11-05T07:21:13.609Z,14.20
2018-11-05T07:23:41.940Z,13.20
2018-11-05T07:26:10.231Z,12.90
2018-11-05T07:28:38.529Z,14.50
2018-11-05T07:31:06.830Z,16.43
2018-11-05T07:33:35.172Z,16.83
2018-11-05T07:36:03.373Z,15.13
2018-11-05T07:38:31.649Z,14.27
2018-11-05T07:40:59.888Z,16.43
2018-11-05T07:43:28.155Z,15.40
2018-11-05T07:45:56.506Z,16.97
2018-11-05T07:48:24.795Z,16.50
2018-11-05T07:50:53.209Z,15.63
2018-11-05T07:53:21.503Z,15.00
2018-11-05T07:55:49.783Z,14.97
2018-11-05T07:58:18.091Z,15.87
2018-11-05T08:00:50.548Z,14.93
2018-11-05T08:03:18.952Z,15.57
2018-11-05T08:05:47.176Z,19.10
2018-11-05T08:08:15.479Z,15.10
2018-11-05T08:10:43.935Z,14.77
2018-11-05T08:13:12.200Z,15.43
2018-11-05T08:15:40.432Z,15.87
2018-11-05T08:18:08.717Z,14.90
2018-11-05T08:20:36.977Z,16.03
2018-11-05T08:23:05.537Z,16.50
2018-11-05T08:25:33.814Z,15.90
2018-11-05T08:28:02.102Z,15.83
2018-11-05T08:30:30.400Z,16.73
2018-11-05T08:32:58.645Z,15.70
2018-11-05T08:35:26.958Z,16.87
2018-11-05T08:37:55.317Z,17.03
2018-11-05T08:40:25.941Z,14.93
2018-11-05T08:42:54.918Z,16.17
2018-11-05T08:45:24.432Z,17.07
2018-11-05T08:47:52.741Z,16.00
2018-11-05T08:50:22.215Z,17.90
2018-11-05T08:52:50.266Z,14.70
2018-11-05T08:55:20.785Z,16.60
2018-11-05T08:57:49.156Z,17.10
2018-11-05T09:00:23.435Z,17.80
2018-11-05T09:02:52.168Z,18.10
2018-11-05T09:05:20.678Z,17.90
2018-11-05T09:07:49.664Z,18.47
2018-11-05T09:10:18.071Z,17.40
2018-11-05T09:12:46.205Z,18.97
2018-11-05T09:15:16.755Z,18.27
2018-11-05T09:17:45.576Z,18.37
2018-11-05T09:20:15.058Z,17.90
2018-11-05T09:22:57.927Z,17.83
2018-11-05T09:25:26.234Z,17.10
2018-11-05T09:27:54.591Z,18.40
2018-11-05T09:30:23.907Z,16.70
2018-11-05T09:32:52.288Z,16.83
2018-11-05T09:35:20.628Z,16.20
2018-11-05T09:37:48.942Z,19.70
2018-11-05T09:40:18.552Z,18.10
2018-11-05T09:42:47.278Z,17.60
2018-11-05T09:45:18.879Z,17.97
2018-11-05T09:47:47.577Z,17.40
2018-11-05T09:50:16.275Z,17.67
2018-11-05T09:52:44.567Z,17.90
2018-11-05T09:55:13.462Z,18.13
2018-11-05T09:57:42.007Z,18.17
2018-11-05T10:00:16.735Z,17.50
2018-11-05T10:03:20.673Z,18.00
2018-11-05T10:05:48.763Z,16.97
2018-11-05T10:08:17.591Z,18.00
2018-11-05T10:10:46.002Z,17.50
2018-11-05T10:13:14.288Z,18.37
2018-11-05T10:15:42.552Z,18.60
2018-11-05T10:18:10.814Z,19.90
2018-11-05T10:20:39.159Z,18.80
2018-11-05T10:23:07.413Z,19.37
2018-11-05T10:25:35.665Z,17.30
2018-11-05T10:28:05.251Z,18.20
2018-11-05T10:30:33.630Z,18.50
2018-11-05T10:33:01.900Z,18.90
2018-11-05T10:35:36.024Z,20.53
2018-11-05T10:38:04.712Z,20.23
2018-11-05T10:40:33.087Z,18.50
2018-11-05T10:43:01.272Z,20.27
2018-11-05T10:45:29.577Z,18.80
2018-11-05T10:47:57.872Z,19.70
2018-11-05T10:50:26.170Z,18.70
2018-11-05T10:52:54.397Z,20.90
2018-11-05T10:55:22.650Z,20.77
2018-11-05T10:57:50.916Z,21.60
2018-11-05T11:00:25.753Z,20.33
2018-11-05T11:03:29.924Z,20.67
2018-11-05T11:05:58.183Z,21.93
2018-11-05T11:08:26.471Z,19.97
2018-11-05T11:10:54.779Z,21.80
2018-11-05T11:13:23.043Z,19.40
2018-11-05T11:15:51.419Z,19.30
2018-11-05T11:18:19.695Z,19.20
2018-11-05T11:20:47.979Z,21.17
2018-11-05T11:23:16.513Z,19.80
2018-11-05T11:25:45.027Z,18.70
2018-11-05T11:28:13.315Z,19.63
2018-11-05T11:30:41.569Z,19.90
2018-11-05T11:33:09.843Z,20.63
2018-11-05T11:35:38.199Z,21.20
2018-11-05T11:38:06.656Z,22.77
2018-11-05T11:40:34.927Z,21.47
2018-11-05T11:43:03.209Z,19.20
2018-11-05T11:45:31.490Z,20.53
2018-11-05T11:47:59.770Z,21.70
2018-11-05T11:50:28.035Z,20.73
2018-11-05T11:52:56.358Z,20.33
2018-11-05T11:55:24.732Z,20.67
2018-11-05T11:57:53.364Z,21.30
2018-11-05T12:00:27.444Z,20.20
2018-11-05T12:02:56.079Z,26.57
2018-11-05T12:05:24.519Z,22.40
2018-11-05T12:07:52.552Z,19.27
2018-11-05T12:10:22.439Z,20.03
2018-11-05T12:12:50.798Z,21.43
2018-11-05T12:15:19.902Z,21.07
2018-11-05T12:17:49.270Z,21.03
2018-11-05T12:20:19.658Z,20.83
2018-11-05T12:22:48.479Z,19.80
2018-11-05T12:25:16.719Z,21.53
2018-11-05T12:27:44.966Z,21.10
2018-11-05T12:30:15.640Z,21.60
2018-11-05T12:32:44.687Z,20.70
2018-11-05T12:35:13.291Z,24.00
2018-11-05T12:37:52.872Z,20.83
2018-11-05T12:40:21.932Z,20.83
2018-11-05T12:42:51.020Z,22.10
2018-11-05T12:45:19.294Z,22.27
2018-11-05T12:47:47.592Z,24.20
2018-11-05T12:50:21.128Z,22.73
2018-11-05T12:52:50.363Z,21.90
2018-11-05T12:55:19.000Z,23.33
2018-11-05T12:57:47.469Z,29.43
2018-11-05T13:00:18.066Z,23.30
2018-11-05T13:02:51.876Z,26.67
2018-11-05T13:05:20.240Z,24.70
2018-11-05T13:08:00.281Z,26.20
2018-11-05T13:10:29.147Z,28.13
2018-11-05T13:12:57.543Z,26.70
2018-11-05T13:15:26.038Z,27.03
2018-11-05T13:17:54.233Z,28.87
2018-11-05T13:20:23.647Z,30.93
2018-11-05T13:22:52.079Z,29.77
2018-11-05T13:25:20.336Z,32.90
2018-11-05T13:27:49.715Z,33.10
2018-11-05T13:30:18.179Z,32.23
2018-11-05T13:32:46.676Z,35.70
2018-11-05T13:35:26.961Z,34.20
2018-11-05T13:37:55.741Z,37.10
2018-11-05T13:40:23.595Z,37.40
2018-11-05T13:42:52.448Z,35.10
2018-11-05T13:45:21.161Z,37.73
2018-11-05T13:47:50.272Z,39.70
2018-11-05T13:50:18.400Z,35.90
2018-11-05T13:52:46.417Z,38.37
2018-11-05T13:55:15.866Z,40.90
2018-11-05T13:57:45.261Z,40.50
2018-11-05T14:00:14.835Z,39.97
2018-11-05T14:02:43.199Z,37.57
2018-11-05T14:05:11.943Z,38.13
2018-11-05T14:07:40.418Z,36.37
2018-11-05T14:10:11.288Z,39.23
2018-11-05T14:12:40.160Z,37.43
2018-11-05T14:15:08.436Z,38.50
2018-11-05T14:17:36.715Z,38.10
2018-11-05T14:20:05.827Z,40.47
2018-11-05T14:22:34.204Z,37.43
2018-11-05T14:25:03.416Z,44.77
2018-11-05T14:27:32.066Z,38.47
2018-11-05T14:30:00.685Z,37.63
2018-11-05T14:32:28.466Z,39.40
2018-11-05T14:34:56.740Z,39.30
2018-11-05T14:37:25.065Z,37.80
2018-11-05T14:39:53.296Z,38.33
2018-11-05T14:42:21.568Z,39.10
2018-11-05T14:44:50.027Z,37.50
2018-11-05T14:47:18.292Z,40.70
2018-11-05T14:49:46.526Z,36.90
2018-11-05T14:52:14.788Z,38.47
2018-11-05T14:54:43.029Z,36.57
2018-11-05T14:57:11.491Z,37.20
2018-11-05T14:59:39.713Z,37.17
2018-11-05T15:02:13.345Z,38.73
2018-11-05T15:04:41.653Z,36.53
2018-11-05T15:07:09.899Z,40.10
2018-11-05T15:09:38.283Z,36.03
2018-11-05T15:12:06.563Z,35.30
2018-11-05T15:14:34.833Z,38.93
2018-11-05T15:17:03.076Z,40.80
2018-11-05T15:19:31.992Z,38.40
2018-11-05T15:21:59.905Z,37.40
2018-11-05T15:24:28.192Z,36.53
2018-11-05T15:26:56.547Z,37.07
2018-11-05T15:29:24.655Z,38.10
2018-11-05T15:31:52.906Z,36.70
2018-11-05T15:34:21.196Z,37.27
2018-11-05T15:36:49.465Z,36.93
2018-11-05T15:39:17.730Z,38.60
2018-11-05T15:41:46.003Z,36.90
2018-11-05T15:44:14.273Z,35.73
2018-11-05T15:46:42.829Z,37.53
2018-11-05T15:49:11.332Z,37.27
2018-11-05T15:51:39.951Z,36.63
2018-11-05T15:54:07.951Z,37.20
2018-11-05T15:56:36.120Z,35.43
2018-11-05T15:59:04.493Z,35.53
2018-11-05T16:01:32.731Z,35.50
2018-11-05T16:04:00.987Z,37.17
2018-11-05T16:06:29.250Z,37.20
2018-11-05T16:08:57.492Z,39.03
2018-11-05T16:11:25.742Z,36.70
2018-11-05T16:13:54.226Z,37.77
2018-11-05T16:16:22.470Z,37.03
2018-11-05T16:18:50.749Z,36.13
2018-11-05T16:21:18.977Z,35.23
2018-11-05T16:23:47.291Z,34.57
2018-11-05T16:26:15.495Z,35.83
2018-11-05T16:28:43.749Z,34.97
2018-11-05T16:31:12.005Z,36.00
2018-11-05T16:33:40.836Z,35.00
2018-11-05T16:36:09.069Z,34.10
2018-11-05T16:38:37.358Z,35.10
2018-11-05T16:41:05.765Z,33.40
2018-11-05T16:43:34.015Z,31.33
2018-11-05T16:46:02.271Z,34.97
2018-11-05T16:48:30.586Z,32.17
2018-11-05T16:50:58.968Z,34.17
2018-11-05T16:53:27.298Z,33.60
2018-11-05T16:55:55.530Z,33.60
2018-11-05T16:58:23.776Z,31.40
2018-11-05T17:00:52.480Z,34.50
2018-11-05T17:03:20.654Z,32.10
2018-11-05T17:05:48.877Z,32.90
2018-11-05T17:08:17.118Z,31.23
2018-11-05T17:10:45.362Z,30.00
2018-11-05T17:13:13.722Z,31.67
2018-11-05T17:15:41.971Z,30.83
2018-11-05T17:18:10.264Z,30.97
2018-11-05T17:20:38.572Z,30.30
2018-11-05T17:23:06.812Z,31.40
2018-11-05T17:25:35.085Z,28.90
2018-11-05T17:28:03.295Z,31.23
2018-11-05T17:30:31.536Z,32.30
2018-11-05T17:32:59.772Z,29.97
2018-11-05T17:35:28.024Z,30.80
2018-11-05T17:58:13.736Z,31.17
2018-11-05T18:00:41.981Z,28.80
2018-11-05T18:03:10.587Z,29.70
2018-11-05T18:05:38.897Z,30.30
2018-11-05T18:08:07.154Z,30.00
2018-11-05T18:10:35.519Z,29.23
2018-11-05T18:13:03.786Z,31.20
2018-11-05T18:15:32.081Z,30.00
2018-11-05T18:18:00.407Z,31.90
2018-11-05T18:20:28.687Z,30.37
2018-11-05T18:22:56.971Z,28.30
2018-11-05T18:25:25.912Z,27.27
2018-11-05T18:27:54.208Z,28.50
2018-11-05T18:30:22.445Z,27.53
2018-11-05T18:32:50.702Z,26.50
2018-11-05T18:35:18.939Z,27.07
2018-11-05T18:37:48.716Z,26.40
2018-11-05T18:40:17.059Z,28.13
2018-11-05T18:42:45.522Z,26.07
2018-11-05T18:45:13.981Z,26.60
2018-11-05T18:47:42.271Z,27.00
2018-11-05T18:50:12.175Z,25.93
2018-11-05T18:52:40.598Z,26.10
2018-11-05T18:55:10.219Z,28.20
2018-11-05T18:57:38.695Z,26.77
2018-11-05T19:00:17.725Z,27.50
2018-11-05T19:02:46.126Z,28.53
2018-11-05T19:05:14.304Z,29.83
2018-11-05T19:07:42.669Z,27.10
2018-11-05T19:10:10.977Z,26.80
2018-11-05T19:12:39.331Z,27.13
2018-11-05T19:15:08.980Z,27.17
2018-11-05T19:17:37.164Z,25.33
2018-11-05T19:20:05.964Z,27.00
2018-11-05T19:22:34.250Z,27.10
2018-11-05T19:25:02.513Z,26.50
2018-11-05T19:27:30.742Z,26.17
2018-11-05T19:29:58.976Z,25.90
2018-11-05T19:32:27.223Z,27.60
2018-11-05T19:34:55.472Z,27.40
2018-11-05T19:37:23.748Z,26.20
2018-11-05T19:39:51.986Z,25.60
2018-11-05T19:42:20.379Z,26.80
2018-11-05T19:44:48.577Z,25.77
2018-11-05T19:47:16.901Z,26.40
2018-11-05T19:49:45.465Z,26.57
2018-11-05T19:52:13.696Z,28.90
2018-11-05T19:54:42.525Z,27.27
2018-11-05T19:57:10.824Z,27.70
2018-11-05T19:59:39.100Z,27.77
2018-11-05T20:02:08.034Z,27.40
2018-11-05T20:04:36.307Z,25.60
2018-11-05T20:07:04.808Z,28.43
2018-11-05T20:09:33.044Z,28.93
2018-11-05T20:12:01.290Z,26.97
2018-11-05T20:14:29.661Z,25.67
2018-11-05T20:16:58.023Z,26.17
2018-11-05T20:19:26.165Z,27.43
2018-11-05T20:21:55.258Z,26.97
2018-11-05T20:24:23.488Z,26.23
2018-11-05T20:26:51.728Z,25.30
2018-11-05T20:29:19.996Z,24.70
2018-11-05T20:31:48.464Z,25.87
2018-11-05T20:34:16.778Z,27.70
2018-11-05T20:36:44.801Z,24.00
2018-11-05T20:39:13.048Z,25.97
2018-11-05T20:41:41.296Z,25.53
2018-11-05T20:44:09.558Z,25.53
2018-11-05T20:46:38.066Z,24.90
2018-11-05T20:49:06.340Z,24.50
2018-11-05T20:51:34.764Z,23.97
2018-11-05T20:54:03.138Z,25.00
2018-11-05T20:56:31.284Z,24.73
2018-11-05T20:58:59.536Z,25.60
2018-11-05T21:01:27.772Z,25.00
2018-11-05T21:03:56.024Z,25.53
2018-11-05T21:06:24.284Z,26.07
2018-11-05T21:08:52.570Z,25.87
2018-11-05T21:11:20.847Z,24.00
2018-11-05T21:13:49.095Z,22.73
2018-11-05T21:16:17.732Z,22.97
2018-11-05T21:18:46.027Z,23.77
2018-11-05T21:21:14.507Z,24.40
2018-11-05T21:23:42.616Z,24.33
2018-11-05T21:26:10.882Z,23.67
2018-11-05T21:28:39.221Z,24.60
2018-11-05T21:31:07.461Z,25.90
2018-11-05T21:33:35.753Z,22.50
2018-11-05T21:36:04.033Z,22.57
2018-11-05T21:38:32.266Z,23.40
2018-11-05T21:41:00.500Z,22.80
2018-11-05T21:43:28.758Z,24.13
2018-11-05T21:45:56.993Z,23.73
2018-11-05T21:48:25.234Z,21.90
2018-11-05T21:50:53.543Z,23.10
2018-11-05T21:53:22.848Z,24.73
2018-11-05T21:55:51.132Z,22.80
2018-11-05T21:58:19.372Z,23.00
2018-11-05T22:00:47.800Z,22.60
2018-11-05T22:03:17.438Z,22.63
2018-11-05T22:05:45.764Z,22.40
2018-11-05T22:08:14.162Z,20.70
2018-11-05T22:10:42.434Z,22.03
2018-11-05T22:13:10.712Z,21.40
2018-11-05T22:15:45.272Z,22.40
2018-11-05T22:18:13.953Z,22.43
2018-11-05T22:20:42.238Z,21.63
2018-11-05T22:23:10.677Z,22.80
2018-11-05T22:25:38.928Z,21.63
2018-11-05T22:28:07.549Z,22.20
2018-11-05T22:30:35.772Z,20.93
2018-11-05T22:33:04.200Z,21.80
2018-11-05T22:35:32.492Z,22.00
2018-11-05T22:38:00.789Z,19.10
2018-11-05T22:40:29.024Z,20.70
2018-11-05T22:42:57.234Z,21.60
2018-11-05T22:45:25.488Z,19.43
2018-11-05T22:47:53.726Z,21.23
2018-11-05T22:50:21.992Z,21.47
2018-11-05T22:52:50.211Z,21.67
2018-11-05T22:55:18.639Z,19.63
2018-11-05T22:57:46.873Z,20.70
2018-11-05T23:00:21.551Z,18.90
2018-11-05T23:02:55.340Z,20.47
2018-11-05T23:05:23.883Z,19.50
2018-11-05T23:07:53.280Z,20.40
2018-11-05T23:10:21.751Z,20.93
2018-11-05T23:12:50.004Z,21.40
2018-11-05T23:15:18.903Z,18.63
2018-11-05T23:17:47.176Z,20.97
2018-11-05T23:20:15.427Z,21.10
2018-11-05T23:22:43.859Z,19.70
2018-11-05T23:25:12.545Z,20.70
2018-11-05T23:27:40.763Z,20.40
2018-11-05T23:30:10.631Z,21.17
2018-11-05T23:32:39.513Z,20.90
2018-11-05T23:35:08.621Z,19.60
2018-11-05T23:37:37.709Z,20.97
2018-11-05T23:40:06.504Z,20.60
2018-11-05T23:42:34.772Z,19.33
2018-11-05T23:45:03.158Z,21.57
2018-11-05T23:47:31.398Z,21.40
2018-11-05T23:49:59.620Z,21.90
2018-11-05T23:52:27.844Z,19.47
2018-11-05T23:54:56.208Z,19.50
2018-11-05T23:57:24.447Z,18.43
2018-11-05T23:59:52.693Z,19.10
